createdAt,value
2022-10-24T04:02:40.248Z,16.15
2022-10-24T04:05:09.602Z,16.25
2022-10-24T04:07:36.158Z,16.26
2022-10-24T04:10:03.032Z,16.26
2022-10-24T04:12:29.556Z,16.32
2022-10-24T04:14:57.194Z,16.38
2022-10-24T04:17:26.523Z,16.28
2022-10-24T04:19:53.021Z,16.32
2022-10-24T04:24:47.229Z,16.41
2022-10-24T04:27:13.815Z,16.33
2022-10-24T04:29:40.334Z,16.39
2022-10-24T04:32:06.944Z,16.41
2022-10-24T04:34:37.191Z,16.44
2022-10-24T04:37:04.080Z,16.44
2022-10-24T04:39:30.937Z,16.48
2022-10-24T04:41:57.490Z,16.45
2022-10-24T04:44:24.014Z,16.38
2022-10-24T04:46:51.513Z,16.33
2022-10-24T04:49:18.425Z,16.38
2022-10-24T04:51:45.046Z,16.30
2022-10-24T04:54:11.849Z,16.41
2022-10-24T04:56:38.407Z,16.28
2022-10-24T04:59:05.678Z,16.30
2022-10-24T05:01:32.815Z,16.33
2022-10-24T05:03:59.397Z,16.36
2022-10-24T05:06:25.955Z,16.35
2022-10-24T05:08:52.529Z,16.35
2022-10-24T05:11:19.075Z,16.48
2022-10-24T05:13:45.605Z,16.41
2022-10-24T05:16:12.153Z,16.39
2022-10-24T05:18:38.668Z,16.35
2022-10-24T05:21:05.485Z,16.28
2022-10-24T05:23:32.059Z,16.36
2022-10-24T05:25:58.549Z,16.30
2022-10-24T05:28:25.297Z,16.33
2022-10-24T05:30:51.816Z,16.35
2022-10-24T05:33:18.296Z,16.41
2022-10-24T05:35:44.869Z,16.35
2022-10-24T05:38:11.555Z,16.42
2022-10-24T05:40:38.262Z,16.44
2022-10-24T05:43:04.725Z,16.45
2022-10-24T05:45:31.276Z,16.49
2022-10-24T05:47:57.827Z,16.52
2022-10-24T05:50:24.436Z,16.51
2022-10-24T05:52:50.963Z,16.41
2022-10-24T05:55:18.438Z,16.33
2022-10-24T05:57:45.876Z,16.24
2022-10-24T06:00:14.705Z,16.30
2022-10-24T06:02:41.682Z,16.35
2022-10-24T06:05:09.553Z,16.35
2022-10-24T06:07:36.696Z,16.39
2022-10-24T06:10:06.145Z,16.48
2022-10-24T06:12:33.275Z,16.55
2022-10-24T06:15:00.755Z,16.70
2022-10-24T06:17:27.468Z,16.69
2022-10-24T06:19:54.342Z,16.72
2022-10-24T06:22:24.101Z,16.79
2022-10-24T06:24:50.881Z,16.73
2022-10-24T06:27:17.538Z,16.72
2022-10-24T06:29:44.353Z,16.83
2022-10-24T06:32:11.261Z,16.83
2022-10-24T06:34:37.796Z,16.76
2022-10-24T06:37:04.499Z,16.80
2022-10-24T06:39:31.186Z,16.76
2022-10-24T06:41:57.711Z,16.66
2022-10-24T06:44:24.275Z,16.58
2022-10-24T06:46:50.764Z,16.55
2022-10-24T06:49:17.701Z,16.53
2022-10-24T06:51:44.618Z,16.55
2022-10-24T06:54:11.263Z,16.56
2022-10-24T06:56:37.859Z,16.63
2022-10-24T06:59:11.562Z,16.70
2022-10-24T07:01:38.268Z,16.87
2022-10-24T07:04:05.410Z,16.93
2022-10-24T07:06:32.672Z,16.93
2022-10-24T07:09:01.183Z,16.88
2022-10-24T07:11:28.297Z,16.84
2022-10-24T07:13:57.974Z,17.00
2022-10-24T07:16:29.222Z,16.94
2022-10-24T07:18:56.270Z,17.13
2022-10-24T07:21:28.791Z,17.25
2022-10-24T07:23:56.498Z,17.54
2022-10-24T07:26:24.836Z,17.97
2022-10-24T07:28:56.003Z,18.40
2022-10-24T07:31:25.705Z,18.20
2022-10-24T07:33:53.370Z,18.23
2022-10-24T07:36:25.546Z,18.54
2022-10-24T07:38:54.074Z,19.24
2022-10-24T07:41:20.669Z,19.49
2022-10-24T07:43:47.415Z,19.71
2022-10-24T07:46:15.754Z,19.79
2022-10-24T07:48:45.047Z,20.37
2022-10-24T07:51:14.747Z,20.77
2022-10-24T07:53:41.870Z,20.40
2022-10-24T07:56:11.900Z,20.76
2022-10-24T07:58:38.475Z,21.10
2022-10-24T08:01:07.576Z,21.28
2022-10-24T08:03:34.513Z,21.66
2022-10-24T08:06:05.477Z,22.16
2022-10-24T08:08:37.170Z,20.77
2022-10-24T08:11:12.603Z,19.51
2022-10-24T08:13:39.487Z,18.82
2022-10-24T08:16:11.163Z,18.29
2022-10-24T08:18:39.936Z,18.44
2022-10-24T08:21:09.965Z,19.47
2022-10-24T08:23:38.524Z,19.20
2022-10-24T08:26:09.901Z,19.22
2022-10-24T08:28:36.558Z,19.64
2022-10-24T08:31:06.155Z,18.89
2022-10-24T08:33:32.838Z,19.36
2022-10-24T08:36:02.431Z,20.33
2022-10-24T08:38:30.733Z,19.71
2022-10-24T08:40:58.376Z,19.24
2022-10-24T08:43:25.912Z,19.31
2022-10-24T08:46:29.117Z,19.60
2022-10-24T08:49:14.116Z,18.81
2022-10-24T08:51:51.315Z,19.10
2022-10-24T08:54:23.289Z,20.25
2022-10-24T08:56:54.572Z,19.68
2022-10-24T08:59:21.336Z,20.04
2022-10-24T09:01:52.286Z,19.23
2022-10-24T09:04:22.760Z,19.56
2022-10-24T09:06:51.877Z,18.69
2022-10-24T09:09:29.941Z,18.60
2022-10-24T09:12:08.482Z,18.52
2022-10-24T09:14:38.563Z,18.51
2022-10-24T09:17:37.693Z,17.96
2022-10-24T09:20:19.086Z,17.92
2022-10-24T09:22:46.082Z,18.45
2022-10-24T09:25:16.808Z,18.26
2022-10-24T09:27:44.435Z,19.82
2022-10-24T09:30:29.864Z,20.84
2022-10-24T09:33:07.603Z,21.30
2022-10-24T09:35:35.580Z,21.32
2022-10-24T09:38:37.275Z,20.37
2022-10-24T09:41:08.099Z,19.34
2022-10-24T09:43:43.779Z,18.45
2022-10-24T09:46:15.029Z,17.99
2022-10-24T09:49:06.050Z,17.97
2022-10-24T09:51:41.084Z,17.75
2022-10-24T09:54:19.744Z,17.97
2022-10-24T09:56:46.206Z,18.50
2022-10-24T09:59:33.566Z,18.31
2022-10-24T10:02:21.746Z,19.91
2022-10-24T10:04:53.369Z,20.46
2022-10-24T10:07:27.036Z,20.85
2022-10-24T10:09:57.030Z,20.15
2022-10-24T10:12:28.292Z,19.67
2022-10-24T10:14:55.186Z,19.22
2022-10-24T10:17:27.704Z,20.24
2022-10-24T10:19:55.352Z,20.50
2022-10-24T10:22:28.608Z,20.94
2022-10-24T10:24:56.449Z,21.39
2022-10-24T10:27:30.419Z,22.64
2022-10-24T10:30:11.833Z,22.98
2022-10-24T10:32:47.045Z,22.44
2022-10-24T10:35:28.082Z,22.40
2022-10-24T10:38:25.204Z,21.88
2022-10-24T10:41:02.179Z,20.33
2022-10-24T10:44:01.027Z,19.85
2022-10-24T10:46:30.368Z,18.78
2022-10-24T10:49:13.196Z,18.27
2022-10-24T10:52:02.282Z,18.30
2022-10-24T10:54:50.115Z,17.87
2022-10-24T10:57:21.567Z,18.04
2022-10-24T11:00:12.723Z,17.76
2022-10-24T11:02:48.256Z,17.82
2022-10-24T11:05:26.374Z,17.75
2022-10-24T11:08:20.929Z,17.34
2022-10-24T11:10:55.007Z,17.56
2022-10-24T11:13:33.695Z,17.97
2022-10-24T11:16:04.714Z,19.99
2022-10-24T11:18:36.584Z,19.58
2022-10-24T11:21:10.967Z,19.20
2022-10-24T11:23:46.733Z,20.32
2022-10-24T11:26:26.926Z,19.88
2022-10-24T11:29:20.892Z,19.13
2022-10-24T11:32:16.305Z,18.38
2022-10-24T11:34:50.840Z,17.90
2022-10-24T11:37:34.104Z,17.72
2022-10-24T11:40:10.581Z,17.90
2022-10-24T11:42:50.740Z,18.27
2022-10-24T11:45:24.124Z,18.38
2022-10-24T11:48:02.567Z,17.90
2022-10-24T11:50:39.758Z,17.92
2022-10-24T11:53:20.883Z,17.96
2022-10-24T11:55:53.636Z,17.90
2022-10-24T11:58:23.239Z,17.75
2022-10-24T12:01:27.013Z,17.42
2022-10-24T12:03:56.532Z,17.02
2022-10-24T12:06:45.641Z,16.90
2022-10-24T12:09:29.593Z,17.30
2022-10-24T12:12:32.878Z,17.96
2022-10-24T12:15:10.002Z,18.27
2022-10-24T12:18:05.811Z,18.27
2022-10-24T12:20:33.327Z,18.24
2022-10-24T12:23:01.546Z,18.34
2022-10-24T12:25:33.173Z,18.43
2022-10-24T12:28:20.909Z,18.58
2022-10-24T12:31:33.453Z,18.00
2022-10-24T12:34:43.675Z,17.81
2022-10-24T12:37:33.790Z,17.51
2022-10-24T12:40:20.303Z,17.36
2022-10-24T12:42:47.218Z,17.31
2022-10-24T12:45:31.866Z,17.25
2022-10-24T12:47:58.606Z,17.20
2022-10-24T12:50:26.110Z,17.04
2022-10-24T12:53:19.222Z,17.07
2022-10-24T12:55:51.491Z,17.20
2022-10-24T12:58:28.220Z,17.10
2022-10-24T13:01:22.051Z,16.94
2022-10-24T13:03:53.034Z,16.81
2022-10-24T13:06:46.363Z,16.80
2022-10-24T13:09:31.718Z,16.72
2022-10-24T13:12:07.158Z,16.72
2022-10-24T13:14:58.477Z,16.88
2022-10-24T13:17:46.672Z,17.31
2022-10-24T13:20:24.957Z,17.36
2022-10-24T13:23:19.812Z,17.38
2022-10-24T13:25:47.707Z,17.31
2022-10-24T13:28:20.375Z,17.35
2022-10-24T13:30:49.735Z,17.72
2022-10-24T13:33:28.915Z,17.94
2022-10-24T13:36:18.044Z,17.58
2022-10-24T13:38:53.167Z,17.52
2022-10-24T13:41:36.973Z,17.30
2022-10-24T13:44:09.637Z,17.36
2022-10-24T13:46:44.544Z,17.39
2022-10-24T13:49:25.788Z,17.58
2022-10-24T13:51:55.580Z,17.66
2022-10-24T13:54:35.808Z,17.89
2022-10-24T13:57:02.866Z,18.10
2022-10-24T13:59:38.591Z,18.18
2022-10-24T14:02:08.584Z,17.94
2022-10-24T14:04:36.022Z,17.81
2022-10-24T14:07:08.484Z,17.72
2022-10-24T14:09:43.448Z,17.73
2022-10-24T14:12:22.865Z,17.71
2022-10-24T14:14:51.724Z,17.68
2022-10-24T14:17:30.832Z,17.75
2022-10-24T14:20:18.977Z,17.82
2022-10-24T14:22:46.134Z,17.73
2022-10-24T14:25:36.167Z,17.55
2022-10-24T14:28:11.467Z,17.25
2022-10-24T14:30:38.016Z,17.10
2022-10-24T14:33:19.750Z,17.08
2022-10-24T14:35:48.030Z,16.93
2022-10-24T14:38:16.954Z,16.66
2022-10-24T14:40:45.072Z,16.35
2022-10-24T14:43:17.494Z,16.19
2022-10-24T14:46:07.520Z,16.42
2022-10-24T14:48:34.198Z,16.39
2022-10-24T14:51:14.339Z,16.25
2022-10-24T14:53:44.966Z,16.14
2022-10-24T14:56:20.092Z,15.88
2022-10-24T14:58:51.339Z,16.01
2022-10-24T15:01:19.461Z,16.11
2022-10-24T15:04:01.245Z,16.07
2022-10-24T15:06:39.645Z,15.93
2022-10-24T15:09:12.310Z,15.97
2022-10-24T15:11:44.492Z,15.97
2022-10-24T15:14:37.012Z,16.19
2022-10-24T15:17:20.918Z,16.22
2022-10-24T15:19:48.843Z,16.17
2022-10-24T15:22:29.277Z,16.30
2022-10-24T15:24:59.033Z,16.15
2022-10-24T15:27:29.803Z,16.14
2022-10-24T15:29:56.511Z,16.15
2022-10-24T15:32:24.446Z,16.19
2022-10-24T15:34:54.153Z,16.15
2022-10-24T15:37:24.579Z,16.21
2022-10-24T15:39:53.868Z,16.18
2022-10-24T15:42:22.532Z,16.21
2022-10-24T15:44:49.523Z,16.26
2022-10-24T15:47:16.088Z,16.25
2022-10-24T15:49:42.619Z,16.29
2022-10-24T15:52:14.682Z,16.26
2022-10-24T15:54:42.121Z,16.24
2022-10-24T15:57:15.862Z,16.05
2022-10-24T15:59:42.395Z,16.04
2022-10-24T16:02:18.824Z,15.87
2022-10-24T16:04:45.749Z,15.79
2022-10-24T16:07:12.285Z,15.69
2022-10-24T16:09:38.885Z,15.52
2022-10-24T16:12:05.630Z,15.40
2022-10-24T16:14:32.502Z,15.36
2022-10-24T16:16:59.180Z,15.29
2022-10-24T16:19:26.553Z,15.22
2022-10-24T16:21:58.293Z,15.18
2022-10-24T16:24:26.124Z,15.15
2022-10-24T16:26:52.787Z,15.01
2022-10-24T16:29:19.443Z,14.96
2022-10-24T16:31:48.845Z,14.89
2022-10-24T16:34:15.341Z,14.88
2022-10-24T16:36:42.553Z,14.82
2022-10-24T16:39:09.668Z,14.74
2022-10-24T16:41:36.257Z,14.57
2022-10-24T16:44:03.756Z,14.60
2022-10-24T16:46:30.340Z,14.53
2022-10-24T16:48:57.240Z,14.43
2022-10-24T16:51:31.836Z,14.40
2022-10-24T16:54:02.359Z,14.37
2022-10-24T16:56:29.909Z,14.33
2022-10-24T16:58:56.479Z,14.30
2022-10-24T17:01:23.867Z,14.30
2022-10-24T17:03:50.470Z,14.23
2022-10-24T17:06:17.104Z,14.27
2022-10-24T17:08:43.659Z,14.30
2022-10-24T17:11:32.304Z,14.29
2022-10-24T17:13:58.077Z,14.36
2022-10-24T17:16:24.781Z,14.34
2022-10-24T17:19:05.420Z,14.37
2022-10-24T17:21:39.143Z,14.36
2022-10-24T17:24:10.380Z,14.33
2022-10-24T17:26:36.949Z,14.41
2022-10-24T17:29:03.911Z,14.37
2022-10-24T17:31:30.591Z,14.36
2022-10-24T17:33:57.343Z,14.46
2022-10-24T17:36:30.208Z,14.59
2022-10-24T17:39:10.231Z,14.59
2022-10-24T17:41:40.724Z,14.60
2022-10-24T17:44:14.760Z,14.61
2022-10-24T17:46:41.471Z,14.70
2022-10-24T17:49:10.662Z,14.68
2022-10-24T17:51:39.870Z,14.75
2022-10-24T17:54:09.164Z,14.77
2022-10-24T17:56:35.906Z,14.84
2022-10-24T17:59:02.795Z,14.85
2022-10-24T18:01:29.443Z,14.74
2022-10-24T18:03:56.001Z,14.71
2022-10-24T18:06:22.684Z,14.65
2022-10-24T18:08:53.338Z,14.71
2022-10-24T18:11:19.918Z,14.77
2022-10-24T18:13:46.619Z,14.80
2022-10-24T18:16:16.670Z,14.84
2022-10-24T18:18:44.293Z,14.89
2022-10-24T18:21:16.607Z,14.89
2022-10-24T18:23:43.175Z,14.88
2022-10-24T18:26:15.400Z,14.95
2022-10-24T18:28:43.876Z,14.82
2022-10-24T18:31:18.750Z,14.89
2022-10-24T18:33:45.774Z,14.81
2022-10-24T18:36:18.071Z,14.81
2022-10-24T18:38:44.752Z,14.80
2022-10-24T18:41:36.640Z,14.82
2022-10-24T18:44:17.045Z,14.84
2022-10-24T18:46:44.640Z,14.80
2022-10-24T18:49:11.371Z,14.71
2022-10-24T18:52:15.516Z,14.59
2022-10-24T18:55:17.866Z,14.53
2022-10-24T18:57:45.312Z,14.34
2022-10-24T19:00:15.118Z,14.41
2022-10-24T19:03:23.498Z,14.40
2022-10-24T19:05:56.855Z,14.33
2022-10-24T19:08:25.450Z,14.37
2022-10-24T19:10:55.163Z,14.27
2022-10-24T19:13:28.140Z,14.22
2022-10-24T19:16:04.455Z,14.10
2022-10-24T19:18:33.914Z,14.09
2022-10-24T19:21:00.749Z,14.02
2022-10-24T19:23:27.408Z,14.05
2022-10-24T19:25:53.987Z,14.01
2022-10-24T19:28:20.768Z,14.04
2022-10-24T19:30:48.078Z,14.01
2022-10-24T19:33:15.372Z,14.05
2022-10-24T19:35:46.983Z,14.16
2022-10-24T19:38:15.145Z,14.22
2022-10-24T19:40:49.696Z,14.17
2022-10-24T19:43:16.231Z,14.10
2022-10-24T19:45:50.074Z,14.08
2022-10-24T19:48:17.631Z,14.09
2022-10-24T19:50:44.281Z,14.10
2022-10-24T19:53:13.133Z,14.12
2022-10-24T19:55:40.400Z,14.09
2022-10-24T19:58:15.569Z,14.10
2022-10-24T20:00:42.601Z,14.16
2022-10-24T20:03:09.153Z,14.17
2022-10-24T20:05:36.205Z,14.12
2022-10-24T20:08:02.794Z,14.09
2022-10-24T20:10:29.343Z,14.13
2022-10-24T20:12:55.816Z,14.12
2022-10-24T20:15:22.327Z,14.12
2022-10-24T20:17:48.820Z,14.04
2022-10-24T20:20:15.501Z,14.10
2022-10-24T20:22:42.008Z,14.01
2022-10-24T20:25:08.503Z,13.94
2022-10-24T20:27:38.711Z,13.92
2022-10-24T20:30:05.818Z,13.89
2022-10-24T20:32:32.289Z,13.86
2022-10-24T20:34:58.771Z,13.85
2022-10-24T20:37:25.264Z,13.76
2022-10-24T20:39:51.750Z,13.76
2022-10-24T20:42:20.206Z,13.74
2022-10-24T20:44:46.743Z,13.75
2022-10-24T20:47:13.218Z,13.69
2022-10-24T20:49:39.798Z,13.69
2022-10-24T20:52:06.364Z,13.65
2022-10-24T20:54:32.867Z,13.59
2022-10-24T20:56:59.376Z,13.57
2022-10-24T20:59:25.887Z,13.53
2022-10-24T21:01:52.610Z,13.59
2022-10-24T21:04:20.848Z,13.57
2022-10-24T21:06:47.747Z,13.46
2022-10-24T21:09:15.099Z,13.47
2022-10-24T21:11:41.739Z,13.47
2022-10-24T21:14:11.890Z,13.50
2022-10-24T21:16:38.653Z,13.50
2022-10-24T21:19:05.168Z,13.46
2022-10-24T21:21:31.912Z,13.47
2022-10-24T21:24:03.874Z,13.41
2022-10-24T21:26:39.666Z,13.48
2022-10-24T21:29:09.417Z,13.44
2022-10-24T21:31:54.135Z,13.50
2022-10-24T21:34:20.682Z,13.51
2022-10-24T21:36:47.202Z,13.55
2022-10-24T21:39:16.291Z,13.50
2022-10-24T21:41:43.452Z,13.50
2022-10-24T21:44:10.506Z,13.50
2022-10-24T21:46:37.042Z,13.50
2022-10-24T21:49:03.579Z,13.51
2022-10-24T21:51:33.111Z,13.48
2022-10-24T21:54:02.990Z,13.48
2022-10-24T21:56:31.815Z,13.46
2022-10-24T21:59:00.907Z,13.51
